Airfield :
LOGIN :

Register | Disclaimer

   EN    FR    IT 

 










Legend :    VFR   Marginal VFR   IFR   Intensive IFR   Very Intensive IFR
Visi :
Ceiling :
>= 8 km
>= 3000ft
5 to 8 km
1000 to 3000 ft
1500m to 5 km
500 to 1000 ft
800 to 1500m
200 to 500 ft
< 800m
< 200 ft
Symbols :   Thunderstorms  Fog  Heavy snow  Heavy precipitations  Wind > 20 kt
SIGMETs :     Misc.  Thunderstorms  Icing  Turbulence  Mountain Waves  Volcanic Ashes







- Airport Elevation : 412 ft
- IATA code : ORE
- Download approach charts


LFOJ - Orleans

CURRENT METAR :
  • 211200Z AUTO VRB03KT CAVOK 25/14 Q1022 NOSIG

EXPIRED METARs :
  • 211130Z AUTO 20003KT 140V240 CAVOK 24/13 Q1022 NOSIG
  • 211100Z AUTO 29005KT 220V350 CAVOK 24/12 Q1022 NOSIG
  • 211030Z AUTO VRB03KT 9999 BKN033 23/12 Q1022 NOSIG
  • 211000Z AUTO 28004KT 230V340 9999 BKN032 23/13 Q1023 NOSIG
  • 210930Z AUTO 24004KT 130V280 9999 FEW001 SCT029 22/12 Q1023 NOSIG

TAF TAF LFOJ
Valid from the 21 at 09:00 until the 22 at 09:00 UTC


210800Z 2109/2209 27010KT 9999 BKN045
BECMG 2120/2122 09005KT
No reported NOTAMs for that airfield.



MET'MAP, your aeronautical weather chart ! - Copyright ORBIFLY December 2007 - Disclaimer

ORBIFLY MET'MAP TEAM :

Programming & Development : Alexandra Zaïnal
Concept & Development : Baudouin d'Aumeries
Co-Development & Prog : Marc-Olivier Méhu
Technical & hardware support : Manuel Goepfert

Contact : metmap@orbifly.com




SOURCES & CREDITS :

   NOAA